sensor_id;sensor_type;location;lat;lon;timestamp;temperature;humidity
66144;SHT31;52947;50.842;6.084;2022-10-16T00:02:22;14.28;85.91
66144;SHT31;52947;50.842;6.084;2022-10-16T00:04:50;14.28;85.44
66144;SHT31;52947;50.842;6.084;2022-10-16T00:07:18;14.32;85.33
66144;SHT31;52947;50.842;6.084;2022-10-16T00:09:46;14.28;86.03
66144;SHT31;52947;50.842;6.084;2022-10-16T00:12:13;14.22;85.24
66144;SHT31;52947;50.842;6.084;2022-10-16T00:14:43;14.21;86.12
66144;SHT31;52947;50.842;6.084;2022-10-16T00:17:10;14.17;86.80
66144;SHT31;52947;50.842;6.084;2022-10-16T00:19:38;14.17;86.39
66144;SHT31;52947;50.842;6.084;2022-10-16T00:22:06;14.13;85.93
66144;SHT31;52947;50.842;6.084;2022-10-16T00:24:33;14.14;85.68
66144;SHT31;52947;50.842;6.084;2022-10-16T00:27:01;14.22;85.22
66144;SHT31;52947;50.842;6.084;2022-10-16T00:29:29;14.05;85.96
66144;SHT31;52947;50.842;6.084;2022-10-16T00:31:58;14.14;85.20
66144;SHT31;52947;50.842;6.084;2022-10-16T00:34:26;14.10;85.33
66144;SHT31;52947;50.842;6.084;2022-10-16T00:36:54;14.01;85.05
66144;SHT31;52947;50.842;6.084;2022-10-16T00:39:22;14.08;85.13
66144;SHT31;52947;50.842;6.084;2022-10-16T00:41:50;14.00;85.53
66144;SHT31;52947;50.842;6.084;2022-10-16T00:44:47;14.01;85.33
66144;SHT31;52947;50.842;6.084;2022-10-16T00:47:22;13.98;84.54
66144;SHT31;52947;50.842;6.084;2022-10-16T00:49:55;13.95;85.64
66144;SHT31;52947;50.842;6.084;2022-10-16T00:52:23;13.95;85.45
66144;SHT31;52947;50.842;6.084;2022-10-16T00:54:52;13.94;84.66
66144;SHT31;52947;50.842;6.084;2022-10-16T00:57:21;13.94;84.20
66144;SHT31;52947;50.842;6.084;2022-10-16T00:59:48;13.91;84.79
66144;SHT31;52947;50.842;6.084;2022-10-16T01:02:17;13.93;84.49
66144;SHT31;52947;50.842;6.084;2022-10-16T01:04:48;13.86;84.23
66144;SHT31;52947;50.842;6.084;2022-10-16T01:07:28;13.87;84.56
66144;SHT31;52947;50.842;6.084;2022-10-16T01:10:07;13.93;83.76
66144;SHT31;52947;50.842;6.084;2022-10-16T01:12:41;13.93;83.32
66144;SHT31;52947;50.842;6.084;2022-10-16T01:15:18;13.93;83.74
66144;SHT31;52947;50.842;6.084;2022-10-16T01:17:49;13.87;83.36
66144;SHT31;52947;50.842;6.084;2022-10-16T01:20:26;13.87;83.26
66144;SHT31;52947;50.842;6.084;2022-10-16T01:23:21;13.88;83.41
66144;SHT31;52947;50.842;6.084;2022-10-16T01:26:02;13.80;82.99
66144;SHT31;52947;50.842;6.084;2022-10-16T01:28:39;13.86;84.22
66144;SHT31;52947;50.842;6.084;2022-10-16T01:31:09;13.91;83.05
66144;SHT31;52947;50.842;6.084;2022-10-16T01:33:42;14.05;83.15
66144;SHT31;52947;50.842;6.084;2022-10-16T01:36:13;14.00;82.78
66144;SHT31;52947;50.842;6.084;2022-10-16T01:38:43;14.04;82.87
66144;SHT31;52947;50.842;6.084;2022-10-16T01:41:16;14.07;83.24
66144;SHT31;52947;50.842;6.084;2022-10-16T01:43:49;14.08;82.33
66144;SHT31;52947;50.842;6.084;2022-10-16T01:46:21;14.10;82.82
66144;SHT31;52947;50.842;6.084;2022-10-16T01:48:50;14.10;82.77
66144;SHT31;52947;50.842;6.084;2022-10-16T01:51:20;14.08;82.30
66144;SHT31;52947;50.842;6.084;2022-10-16T01:53:51;14.03;82.48
66144;SHT31;52947;50.842;6.084;2022-10-16T01:56:21;14.04;83.02
66144;SHT31;52947;50.842;6.084;2022-10-16T01:58:54;14.05;82.06
66144;SHT31;52947;50.842;6.084;2022-10-16T02:01:24;14.03;82.41
66144;SHT31;52947;50.842;6.084;2022-10-16T02:03:56;14.03;82.94
66144;SHT31;52947;50.842;6.084;2022-10-16T02:06:26;14.03;82.57
66144;SHT31;52947;50.842;6.084;2022-10-16T02:08:55;14.05;82.64
66144;SHT31;52947;50.842;6.084;2022-10-16T02:11:24;14.08;83.01
66144;SHT31;52947;50.842;6.084;2022-10-16T02:13:58;14.05;82.68
66144;SHT31;52947;50.842;6.084;2022-10-16T02:16:33;14.04;82.92
66144;SHT31;52947;50.842;6.084;2022-10-16T02:19:01;13.97;83.18
66144;SHT31;52947;50.842;6.084;2022-10-16T02:21:33;13.98;83.25
66144;SHT31;52947;50.842;6.084;2022-10-16T02:24:09;13.91;83.79
66144;SHT31;52947;50.842;6.084;2022-10-16T02:26:43;13.83;83.61
66144;SHT31;52947;50.842;6.084;2022-10-16T02:29:17;13.80;83.77
66144;SHT31;52947;50.842;6.084;2022-10-16T02:31:49;13.77;84.21
66144;SHT31;52947;50.842;6.084;2022-10-16T02:34:19;13.86;84.15
66144;SHT31;52947;50.842;6.084;2022-10-16T02:36:50;13.77;84.23
66144;SHT31;52947;50.842;6.084;2022-10-16T02:39:19;13.70;84.39
66144;SHT31;52947;50.842;6.084;2022-10-16T02:41:47;13.73;84.44
66144;SHT31;52947;50.842;6.084;2022-10-16T02:44:16;13.71;84.96
66144;SHT31;52947;50.842;6.084;2022-10-16T02:46:44;13.67;84.83
66144;SHT31;52947;50.842;6.084;2022-10-16T02:49:12;13.67;85.12
66144;SHT31;52947;50.842;6.084;2022-10-16T02:51:40;13.64;85.19
66144;SHT31;52947;50.842;6.084;2022-10-16T02:54:07;13.63;85.08
66144;SHT31;52947;50.842;6.084;2022-10-16T02:56:35;13.63;85.34
66144;SHT31;52947;50.842;6.084;2022-10-16T02:59:03;13.66;85.48
66144;SHT31;52947;50.842;6.084;2022-10-16T03:01:32;13.64;85.39
66144;SHT31;52947;50.842;6.084;2022-10-16T03:04:00;13.64;85.53
66144;SHT31;52947;50.842;6.084;2022-10-16T03:06:28;13.62;85.70
66144;SHT31;52947;50.842;6.084;2022-10-16T03:08:56;13.56;85.87
66144;SHT31;52947;50.842;6.084;2022-10-16T03:11:23;13.59;86.03
66144;SHT31;52947;50.842;6.084;2022-10-16T03:13:51;13.56;85.99
66144;SHT31;52947;50.842;6.084;2022-10-16T03:16:19;13.62;86.24
66144;SHT31;52947;50.842;6.084;2022-10-16T03:18:49;13.67;85.88
66144;SHT31;52947;50.842;6.084;2022-10-16T03:21:17;13.64;86.76
66144;SHT31;52947;50.842;6.084;2022-10-16T03:23:45;13.71;86.11
66144;SHT31;52947;50.842;6.084;2022-10-16T03:26:13;13.67;86.52
66144;SHT31;52947;50.842;6.084;2022-10-16T03:28:41;13.67;86.08
66144;SHT31;52947;50.842;6.084;2022-10-16T03:31:08;13.69;86.30
66144;SHT31;52947;50.842;6.084;2022-10-16T03:33:36;13.69;85.97
66144;SHT31;52947;50.842;6.084;2022-10-16T03:36:05;13.66;86.14
66144;SHT31;52947;50.842;6.084;2022-10-16T03:38:34;13.64;86.11
66144;SHT31;52947;50.842;6.084;2022-10-16T03:41:01;13.62;86.51
66144;SHT31;52947;50.842;6.084;2022-10-16T03:43:30;13.62;86.56
66144;SHT31;52947;50.842;6.084;2022-10-16T03:45:58;13.57;86.48
66144;SHT31;52947;50.842;6.084;2022-10-16T03:48:25;13.56;86.45
66144;SHT31;52947;50.842;6.084;2022-10-16T03:50:53;13.64;86.83
66144;SHT31;52947;50.842;6.084;2022-10-16T03:53:22;13.64;86.53
66144;SHT31;52947;50.842;6.084;2022-10-16T03:55:50;13.67;86.28
66144;SHT31;52947;50.842;6.084;2022-10-16T03:58:18;13.62;86.54
66144;SHT31;52947;50.842;6.084;2022-10-16T04:00:46;13.60;86.44
66144;SHT31;52947;50.842;6.084;2022-10-16T04:03:15;13.63;86.62
66144;SHT31;52947;50.842;6.084;2022-10-16T04:05:43;13.64;86.56
66144;SHT31;52947;50.842;6.084;2022-10-16T04:08:11;13.63;86.80
66144;SHT31;52947;50.842;6.084;2022-10-16T04:10:42;13.59;86.72
66144;SHT31;52947;50.842;6.084;2022-10-16T04:13:10;13.49;86.78
66144;SHT31;52947;50.842;6.084;2022-10-16T04:15:38;13.45;87.23
66144;SHT31;52947;50.842;6.084;2022-10-16T04:18:05;13.46;87.26
66144;SHT31;52947;50.842;6.084;2022-10-16T04:20:33;13.45;87.46
66144;SHT31;52947;50.842;6.084;2022-10-16T04:23:01;13.39;87.40
66144;SHT31;52947;50.842;6.084;2022-10-16T04:25:30;13.39;87.50
66144;SHT31;52947;50.842;6.084;2022-10-16T04:27:59;13.35;87.79
66144;SHT31;52947;50.842;6.084;2022-10-16T04:30:27;13.30;88.49
66144;SHT31;52947;50.842;6.084;2022-10-16T04:32:55;13.40;87.83
66144;SHT31;52947;50.842;6.084;2022-10-16T04:35:23;13.36;87.78
66144;SHT31;52947;50.842;6.084;2022-10-16T04:37:50;13.42;87.59
66144;SHT31;52947;50.842;6.084;2022-10-16T04:40:18;13.36;87.87
66144;SHT31;52947;50.842;6.084;2022-10-16T04:42:46;13.36;87.55
66144;SHT31;52947;50.842;6.084;2022-10-16T04:45:15;13.36;87.46
66144;SHT31;52947;50.842;6.084;2022-10-16T04:47:43;13.32;87.57
66144;SHT31;52947;50.842;6.084;2022-10-16T04:50:10;13.33;88.03
66144;SHT31;52947;50.842;6.084;2022-10-16T04:52:38;13.39;88.01
66144;SHT31;52947;50.842;6.084;2022-10-16T04:55:07;13.25;87.69
66144;SHT31;52947;50.842;6.084;2022-10-16T04:57:34;13.26;87.68
66144;SHT31;52947;50.842;6.084;2022-10-16T05:00:03;13.35;87.89
66144;SHT31;52947;50.842;6.084;2022-10-16T05:02:32;13.33;87.85
66144;SHT31;52947;50.842;6.084;2022-10-16T05:05:00;13.29;87.81
66144;SHT31;52947;50.842;6.084;2022-10-16T05:07:27;13.30;88.62
66144;SHT31;52947;50.842;6.084;2022-10-16T05:09:55;13.39;88.34
66144;SHT31;52947;50.842;6.084;2022-10-16T05:12:23;13.45;87.32
66144;SHT31;52947;50.842;6.084;2022-10-16T05:14:51;13.47;87.76
66144;SHT31;52947;50.842;6.084;2022-10-16T05:17:18;13.45;87.47
66144;SHT31;52947;50.842;6.084;2022-10-16T05:19:47;13.53;87.51
66144;SHT31;52947;50.842;6.084;2022-10-16T05:22:15;13.43;87.15
66144;SHT31;52947;50.842;6.084;2022-10-16T05:24:43;13.54;87.56
66144;SHT31;52947;50.842;6.084;2022-10-16T05:27:11;13.54;87.41
66144;SHT31;52947;50.842;6.084;2022-10-16T05:29:45;13.56;87.03
66144;SHT31;52947;50.842;6.084;2022-10-16T05:32:14;13.57;86.93
66144;SHT31;52947;50.842;6.084;2022-10-16T05:34:42;13.57;86.76
66144;SHT31;52947;50.842;6.084;2022-10-16T05:37:11;13.56;87.30
66144;SHT31;52947;50.842;6.084;2022-10-16T05:39:39;13.54;86.68
66144;SHT31;52947;50.842;6.084;2022-10-16T05:42:07;13.49;86.89
66144;SHT31;52947;50.842;6.084;2022-10-16T05:44:35;13.42;87.55
66144;SHT31;52947;50.842;6.084;2022-10-16T05:47:02;13.40;87.27
66144;SHT31;52947;50.842;6.084;2022-10-16T05:49:30;13.49;87.31
66144;SHT31;52947;50.842;6.084;2022-10-16T05:51:58;13.45;87.32
66144;SHT31;52947;50.842;6.084;2022-10-16T05:54:27;13.47;87.10
66144;SHT31;52947;50.842;6.084;2022-10-16T05:56:55;13.50;87.18
66144;SHT31;52947;50.842;6.084;2022-10-16T05:59:22;13.54;87.12
66144;SHT31;52947;50.842;6.084;2022-10-16T06:01:50;13.62;86.80
66144;SHT31;52947;50.842;6.084;2022-10-16T06:04:19;13.57;87.06
66144;SHT31;52947;50.842;6.084;2022-10-16T06:06:47;13.56;87.19
66144;SHT31;52947;50.842;6.084;2022-10-16T06:09:15;13.49;87.28
66144;SHT31;52947;50.842;6.084;2022-10-16T06:11:44;13.52;87.31
66144;SHT31;52947;50.842;6.084;2022-10-16T06:14:11;13.52;87.04
66144;SHT31;52947;50.842;6.084;2022-10-16T06:16:39;13.60;86.93
66144;SHT31;52947;50.842;6.084;2022-10-16T06:19:07;13.53;87.20
66144;SHT31;52947;50.842;6.084;2022-10-16T06:21:35;13.60;87.15
66144;SHT31;52947;50.842;6.084;2022-10-16T06:24:03;13.63;86.95
66144;SHT31;52947;50.842;6.084;2022-10-16T06:26:31;13.70;86.92
66144;SHT31;52947;50.842;6.084;2022-10-16T06:29:00;13.76;86.75
66144;SHT31;52947;50.842;6.084;2022-10-16T06:31:28;13.80;86.64
66144;SHT31;52947;50.842;6.084;2022-10-16T06:33:57;13.83;86.63
66144;SHT31;52947;50.842;6.084;2022-10-16T06:36:26;13.90;86.43
66144;SHT31;52947;50.842;6.084;2022-10-16T06:38:54;14.07;86.13
66144;SHT31;52947;50.842;6.084;2022-10-16T06:41:22;14.11;86.11
66144;SHT31;52947;50.842;6.084;2022-10-16T06:43:51;14.07;85.76
66144;SHT31;52947;50.842;6.084;2022-10-16T06:46:25;14.13;85.68
66144;SHT31;52947;50.842;6.084;2022-10-16T06:48:53;14.07;86.14
66144;SHT31;52947;50.842;6.084;2022-10-16T06:51:22;14.07;85.98
66144;SHT31;52947;50.842;6.084;2022-10-16T06:53:52;14.08;86.06
66144;SHT31;52947;50.842;6.084;2022-10-16T06:56:29;14.36;85.23
66144;SHT31;52947;50.842;6.084;2022-10-16T06:58:58;14.49;84.54
66144;SHT31;52947;50.842;6.084;2022-10-16T07:01:28;14.45;84.90
66144;SHT31;52947;50.842;6.084;2022-10-16T07:03:56;14.46;84.82
66144;SHT31;52947;50.842;6.084;2022-10-16T07:06:26;15.13;82.69
66144;SHT31;52947;50.842;6.084;2022-10-16T07:08:54;15.74;81.09
66144;SHT31;52947;50.842;6.084;2022-10-16T07:11:23;16.67;78.19
66144;SHT31;52947;50.842;6.084;2022-10-16T07:13:52;17.07;76.16
66144;SHT31;52947;50.842;6.084;2022-10-16T07:16:24;16.43;77.87
66144;SHT31;52947;50.842;6.084;2022-10-16T07:18:53;16.33;77.71
66144;SHT31;52947;50.842;6.084;2022-10-16T07:21:25;15.84;79.66
66144;SHT31;52947;50.842;6.084;2022-10-16T07:23:56;15.50;80.72
66144;SHT31;52947;50.842;6.084;2022-10-16T07:26:26;16.19;79.38
66144;SHT31;52947;50.842;6.084;2022-10-16T07:28:54;17.36;75.60
66144;SHT31;52947;50.842;6.084;2022-10-16T07:31:22;18.45;72.38
66144;SHT31;52947;50.842;6.084;2022-10-16T07:33:50;19.26;70.38
66144;SHT31;52947;50.842;6.084;2022-10-16T07:36:20;20.24;67.82
66144;SHT31;52947;50.842;6.084;2022-10-16T07:38:48;20.96;66.70
66144;SHT31;52947;50.842;6.084;2022-10-16T07:41:21;20.51;66.74
66144;SHT31;52947;50.842;6.084;2022-10-16T07:43:50;20.77;66.12
66144;SHT31;52947;50.842;6.084;2022-10-16T07:46:18;21.04;64.91
66144;SHT31;52947;50.842;6.084;2022-10-16T07:48:47;20.35;66.40
66144;SHT31;52947;50.842;6.084;2022-10-16T07:51:16;20.39;66.45
66144;SHT31;52947;50.842;6.084;2022-10-16T07:53:46;19.85;67.28
66144;SHT31;52947;50.842;6.084;2022-10-16T07:56:15;20.35;66.32
66144;SHT31;52947;50.842;6.084;2022-10-16T07:58:44;21.07;64.45
66144;SHT31;52947;50.842;6.084;2022-10-16T08:01:14;21.86;62.97
66144;SHT31;52947;50.842;6.084;2022-10-16T08:03:43;22.39;61.30
66144;SHT31;52947;50.842;6.084;2022-10-16T08:06:11;23.24;60.37
66144;SHT31;52947;50.842;6.084;2022-10-16T08:08:39;23.63;59.40
66144;SHT31;52947;50.842;6.084;2022-10-16T08:11:08;23.96;58.21
66144;SHT31;52947;50.842;6.084;2022-10-16T08:13:36;23.41;57.92
66144;SHT31;52947;50.842;6.084;2022-10-16T08:16:05;23.07;58.45
66144;SHT31;52947;50.842;6.084;2022-10-16T08:18:35;23.62;57.75
66144;SHT31;52947;50.842;6.084;2022-10-16T08:21:04;23.48;57.45
66144;SHT31;52947;50.842;6.084;2022-10-16T08:23:32;23.21;58.02
66144;SHT31;52947;50.842;6.084;2022-10-16T08:26:05;23.10;58.75
66144;SHT31;52947;50.842;6.084;2022-10-16T08:28:35;23.27;57.70
66144;SHT31;52947;50.842;6.084;2022-10-16T08:31:08;22.77;58.31
66144;SHT31;52947;50.842;6.084;2022-10-16T08:33:36;21.86;60.17
66144;SHT31;52947;50.842;6.084;2022-10-16T08:36:05;22.12;59.88
66144;SHT31;52947;50.842;6.084;2022-10-16T08:38:33;22.76;58.24
66144;SHT31;52947;50.842;6.084;2022-10-16T08:41:18;23.61;56.98
66144;SHT31;52947;50.842;6.084;2022-10-16T08:44:15;24.03;56.04
66144;SHT31;52947;50.842;6.084;2022-10-16T08:46:52;24.24;55.16
66144;SHT31;52947;50.842;6.084;2022-10-16T08:49:21;24.43;54.93
66144;SHT31;52947;50.842;6.084;2022-10-16T08:51:51;24.50;54.76
66144;SHT31;52947;50.842;6.084;2022-10-16T08:54:28;24.85;53.97
66144;SHT31;52947;50.842;6.084;2022-10-16T08:56:57;24.77;53.49
66144;SHT31;52947;50.842;6.084;2022-10-16T08:59:29;24.48;54.17
66144;SHT31;52947;50.842;6.084;2022-10-16T09:01:57;24.94;53.84
66144;SHT31;52947;50.842;6.084;2022-10-16T09:04:42;24.63;53.60
66144;SHT31;52947;50.842;6.084;2022-10-16T09:07:17;24.58;54.30
66144;SHT31;52947;50.842;6.084;2022-10-16T09:10:01;24.67;54.45
66144;SHT31;52947;50.842;6.084;2022-10-16T09:12:36;24.54;53.98
66144;SHT31;52947;50.842;6.084;2022-10-16T09:15:16;25.54;52.80
66144;SHT31;52947;50.842;6.084;2022-10-16T09:17:54;25.89;51.82
66144;SHT31;52947;50.842;6.084;2022-10-16T09:20:30;26.53;50.79
66144;SHT31;52947;50.842;6.084;2022-10-16T09:23:17;26.31;50.71
66144;SHT31;52947;50.842;6.084;2022-10-16T09:25:47;25.53;51.55
66144;SHT31;52947;50.842;6.084;2022-10-16T09:28:17;25.46;51.65
66144;SHT31;52947;50.842;6.084;2022-10-16T09:30:47;26.31;50.38
66144;SHT31;52947;50.842;6.084;2022-10-16T09:33:18;27.24;48.53
66144;SHT31;52947;50.842;6.084;2022-10-16T09:35:48;27.20;48.06
66144;SHT31;52947;50.842;6.084;2022-10-16T09:38:22;27.03;47.96
66144;SHT31;52947;50.842;6.084;2022-10-16T09:40:50;26.88;47.52
66144;SHT31;52947;50.842;6.084;2022-10-16T09:43:33;25.84;49.80
66144;SHT31;52947;50.842;6.084;2022-10-16T09:46:05;25.71;49.53
66144;SHT31;52947;50.842;6.084;2022-10-16T09:48:36;26.52;48.33
66144;SHT31;52947;50.842;6.084;2022-10-16T09:51:06;26.44;48.07
66144;SHT31;52947;50.842;6.084;2022-10-16T09:53:42;26.55;49.40
66144;SHT31;52947;50.842;6.084;2022-10-16T09:56:11;26.80;48.43
66144;SHT31;52947;50.842;6.084;2022-10-16T09:58:49;27.06;47.18
66144;SHT31;52947;50.842;6.084;2022-10-16T10:01:21;27.80;46.13
66144;SHT31;52947;50.842;6.084;2022-10-16T10:03:49;27.30;46.27
66144;SHT31;52947;50.842;6.084;2022-10-16T10:06:24;26.63;47.52
66144;SHT31;52947;50.842;6.084;2022-10-16T10:08:54;26.01;47.45
66144;SHT31;52947;50.842;6.084;2022-10-16T10:11:39;24.95;50.87
66144;SHT31;52947;50.842;6.084;2022-10-16T10:14:16;25.29;49.97
66144;SHT31;52947;50.842;6.084;2022-10-16T10:16:46;24.51;51.54
66144;SHT31;52947;50.842;6.084;2022-10-16T10:19:16;24.85;51.37
66144;SHT31;52947;50.842;6.084;2022-10-16T10:21:45;23.75;54.20
66144;SHT31;52947;50.842;6.084;2022-10-16T10:24:14;23.63;53.50
66144;SHT31;52947;50.842;6.084;2022-10-16T10:26:49;25.01;51.27
66144;SHT31;52947;50.842;6.084;2022-10-16T10:29:27;24.28;52.82
66144;SHT31;52947;50.842;6.084;2022-10-16T10:32:10;23.17;55.42
66144;SHT31;52947;50.842;6.084;2022-10-16T10:34:50;23.07;56.00
66144;SHT31;52947;50.842;6.084;2022-10-16T10:37:37;22.60;56.86
66144;SHT31;52947;50.842;6.084;2022-10-16T10:40:16;22.23;57.84
66144;SHT31;52947;50.842;6.084;2022-10-16T10:42:51;23.24;56.32
66144;SHT31;52947;50.842;6.084;2022-10-16T10:45:26;24.87;52.84
66144;SHT31;52947;50.842;6.084;2022-10-16T10:48:24;25.16;51.58
66144;SHT31;52947;50.842;6.084;2022-10-16T10:51:01;25.76;51.23
66144;SHT31;52947;50.842;6.084;2022-10-16T10:53:37;25.50;50.93
66144;SHT31;52947;50.842;6.084;2022-10-16T10:56:16;24.02;54.03
66144;SHT31;52947;50.842;6.084;2022-10-16T10:59:20;23.79;55.66
66144;SHT31;52947;50.842;6.084;2022-10-16T11:01:56;24.23;53.89
66144;SHT31;52947;50.842;6.084;2022-10-16T11:04:39;25.50;51.02
66144;SHT31;52947;50.842;6.084;2022-10-16T11:07:15;26.08;49.41
66144;SHT31;52947;50.842;6.084;2022-10-16T11:09:46;26.24;50.39
66144;SHT31;52947;50.842;6.084;2022-10-16T11:12:18;26.25;49.56
66144;SHT31;52947;50.842;6.084;2022-10-16T11:14:52;24.75;52.01
66144;SHT31;52947;50.842;6.084;2022-10-16T11:17:27;25.19;51.94
66144;SHT31;52947;50.842;6.084;2022-10-16T11:20:02;26.02;49.61
66144;SHT31;52947;50.842;6.084;2022-10-16T11:22:34;26.55;48.88
66144;SHT31;52947;50.842;6.084;2022-10-16T11:25:11;26.88;48.69
66144;SHT31;52947;50.842;6.084;2022-10-16T11:27:43;26.53;48.78
66144;SHT31;52947;50.842;6.084;2022-10-16T11:30:16;27.22;47.00
66144;SHT31;52947;50.842;6.084;2022-10-16T11:33:02;26.30;47.55
66144;SHT31;52947;50.842;6.084;2022-10-16T11:35:39;26.13;48.37
66144;SHT31;52947;50.842;6.084;2022-10-16T11:38:14;26.76;46.03
66144;SHT31;52947;50.842;6.084;2022-10-16T11:40:46;25.63;48.15
66144;SHT31;52947;50.842;6.084;2022-10-16T11:43:20;23.69;51.39
66144;SHT31;52947;50.842;6.084;2022-10-16T11:45:51;23.41;51.86
66144;SHT31;52947;50.842;6.084;2022-10-16T11:48:26;24.17;49.76
66144;SHT31;52947;50.842;6.084;2022-10-16T11:51:00;24.46;50.73
66144;SHT31;52947;50.842;6.084;2022-10-16T11:53:39;24.50;50.68
66144;SHT31;52947;50.842;6.084;2022-10-16T11:56:19;25.04;48.29
66144;SHT31;52947;50.842;6.084;2022-10-16T11:58:54;25.08;48.73
66144;SHT31;52947;50.842;6.084;2022-10-16T12:01:30;24.78;49.07
66144;SHT31;52947;50.842;6.084;2022-10-16T12:04:05;25.18;48.87
66144;SHT31;52947;50.842;6.084;2022-10-16T12:06:38;25.14;48.23
66144;SHT31;52947;50.842;6.084;2022-10-16T12:09:13;25.22;49.29
66144;SHT31;52947;50.842;6.084;2022-10-16T12:11:42;24.95;49.52
66144;SHT31;52947;50.842;6.084;2022-10-16T12:14:21;25.43;48.45
66144;SHT31;52947;50.842;6.084;2022-10-16T12:16:53;24.28;50.37
66144;SHT31;52947;50.842;6.084;2022-10-16T12:19:23;24.24;51.53
66144;SHT31;52947;50.842;6.084;2022-10-16T12:21:56;24.77;49.97
66144;SHT31;52947;50.842;6.084;2022-10-16T12:24:34;25.42;49.57
66144;SHT31;52947;50.842;6.084;2022-10-16T12:27:03;25.14;49.52
66144;SHT31;52947;50.842;6.084;2022-10-16T12:29:37;26.41;48.24
66144;SHT31;52947;50.842;6.084;2022-10-16T12:32:22;26.76;46.41
66144;SHT31;52947;50.842;6.084;2022-10-16T12:35:19;26.73;46.76
66144;SHT31;52947;50.842;6.084;2022-10-16T12:37:49;26.47;47.27
66144;SHT31;52947;50.842;6.084;2022-10-16T12:40:27;26.42;47.47
66144;SHT31;52947;50.842;6.084;2022-10-16T12:42:55;26.10;47.08
66144;SHT31;52947;50.842;6.084;2022-10-16T12:45:26;26.08;48.17
66144;SHT31;52947;50.842;6.084;2022-10-16T12:47:55;26.01;47.87
66144;SHT31;52947;50.842;6.084;2022-10-16T12:50:24;25.81;48.40
66144;SHT31;52947;50.842;6.084;2022-10-16T12:52:53;26.01;49.10
66144;SHT31;52947;50.842;6.084;2022-10-16T12:55:22;25.76;47.67
66144;SHT31;52947;50.842;6.084;2022-10-16T12:58:00;25.05;48.75
66144;SHT31;52947;50.842;6.084;2022-10-16T13:00:38;25.39;50.14
66144;SHT31;52947;50.842;6.084;2022-10-16T13:06:29;25.01;50.85
66144;SHT31;52947;50.842;6.084;2022-10-16T13:09:14;24.78;50.30
66144;SHT31;52947;50.842;6.084;2022-10-16T13:11:56;24.71;50.39
66144;SHT31;52947;50.842;6.084;2022-10-16T13:14:41;24.58;51.32
66144;SHT31;52947;50.842;6.084;2022-10-16T13:17:15;23.49;53.55
66144;SHT31;52947;50.842;6.084;2022-10-16T13:19:52;23.12;54.14
66144;SHT31;52947;50.842;6.084;2022-10-16T13:22:29;22.57;55.09
66144;SHT31;52947;50.842;6.084;2022-10-16T13:25:13;21.86;57.53
66144;SHT31;52947;50.842;6.084;2022-10-16T13:27:48;21.58;58.03
66144;SHT31;52947;50.842;6.084;2022-10-16T13:30:21;21.47;57.88
66144;SHT31;52947;50.842;6.084;2022-10-16T13:32:59;21.48;57.26
66144;SHT31;52947;50.842;6.084;2022-10-16T13:35:29;21.67;57.12
66144;SHT31;52947;50.842;6.084;2022-10-16T13:38:05;21.54;57.86
66144;SHT31;52947;50.842;6.084;2022-10-16T13:40:34;21.59;57.53
66144;SHT31;52947;50.842;6.084;2022-10-16T13:43:03;21.96;57.38
66144;SHT31;52947;50.842;6.084;2022-10-16T13:45:31;22.49;56.58
66144;SHT31;52947;50.842;6.084;2022-10-16T13:48:03;23.07;54.85
66144;SHT31;52947;50.842;6.084;2022-10-16T13:50:31;22.20;57.14
66144;SHT31;52947;50.842;6.084;2022-10-16T13:53:05;21.64;58.03
66144;SHT31;52947;50.842;6.084;2022-10-16T13:55:35;21.24;59.09
66144;SHT31;52947;50.842;6.084;2022-10-16T13:58:08;20.99;59.57
66144;SHT31;52947;50.842;6.084;2022-10-16T14:00:36;20.82;60.32
66144;SHT31;52947;50.842;6.084;2022-10-16T14:03:13;20.65;60.95
66144;SHT31;52947;50.842;6.084;2022-10-16T14:05:44;20.57;61.37
66144;SHT31;52947;50.842;6.084;2022-10-16T14:08:15;20.51;61.51
66144;SHT31;52947;50.842;6.084;2022-10-16T14:10:48;20.61;61.08
66144;SHT31;52947;50.842;6.084;2022-10-16T14:13:19;20.57;61.33
66144;SHT31;52947;50.842;6.084;2022-10-16T14:15:49;20.63;61.19
66144;SHT31;52947;50.842;6.084;2022-10-16T14:18:21;20.63;61.98
66144;SHT31;52947;50.842;6.084;2022-10-16T14:20:50;20.66;61.48
66144;SHT31;52947;50.842;6.084;2022-10-16T14:23:21;20.76;61.47
66144;SHT31;52947;50.842;6.084;2022-10-16T14:25:51;20.79;61.62
66144;SHT31;52947;50.842;6.084;2022-10-16T14:28:21;20.77;62.22
66144;SHT31;52947;50.842;6.084;2022-10-16T14:30:50;20.80;62.09
66144;SHT31;52947;50.842;6.084;2022-10-16T14:33:20;20.87;61.78
66144;SHT31;52947;50.842;6.084;2022-10-16T14:36:01;20.93;61.64
66144;SHT31;52947;50.842;6.084;2022-10-16T14:38:29;20.96;61.61
66144;SHT31;52947;50.842;6.084;2022-10-16T14:40:59;20.83;61.90
66144;SHT31;52947;50.842;6.084;2022-10-16T14:43:32;20.66;62.07
66144;SHT31;52947;50.842;6.084;2022-10-16T14:46:02;20.42;62.84
66144;SHT31;52947;50.842;6.084;2022-10-16T14:48:31;20.32;63.38
66144;SHT31;52947;50.842;6.084;2022-10-16T14:50:59;20.38;63.59
66144;SHT31;52947;50.842;6.084;2022-10-16T14:53:27;20.36;63.59
66144;SHT31;52947;50.842;6.084;2022-10-16T14:55:55;20.24;64.62
66144;SHT31;52947;50.842;6.084;2022-10-16T14:58:24;20.01;64.67
66144;SHT31;52947;50.842;6.084;2022-10-16T15:00:52;20.01;64.62
66144;SHT31;52947;50.842;6.084;2022-10-16T15:03:20;19.83;65.42
66144;SHT31;52947;50.842;6.084;2022-10-16T15:05:48;19.85;65.45
66144;SHT31;52947;50.842;6.084;2022-10-16T15:08:16;19.81;65.61
66144;SHT31;52947;50.842;6.084;2022-10-16T15:10:44;19.66;66.11
66144;SHT31;52947;50.842;6.084;2022-10-16T15:13:12;19.60;66.17
66144;SHT31;52947;50.842;6.084;2022-10-16T15:15:43;19.52;66.30
66144;SHT31;52947;50.842;6.084;2022-10-16T15:18:11;19.50;66.53
66144;SHT31;52947;50.842;6.084;2022-10-16T15:20:41;19.54;66.68
66144;SHT31;52947;50.842;6.084;2022-10-16T15:23:13;19.53;66.84
66144;SHT31;52947;50.842;6.084;2022-10-16T15:25:43;19.47;66.89
66144;SHT31;52947;50.842;6.084;2022-10-16T15:28:12;19.50;67.03
66144;SHT31;52947;50.842;6.084;2022-10-16T15:30:42;19.52;67.07
66144;SHT31;52947;50.842;6.084;2022-10-16T15:33:14;19.37;67.59
66144;SHT31;52947;50.842;6.084;2022-10-16T15:35:45;19.29;67.63
66144;SHT31;52947;50.842;6.084;2022-10-16T15:38:14;19.13;68.29
66144;SHT31;52947;50.842;6.084;2022-10-16T15:40:42;19.05;68.57
66144;SHT31;52947;50.842;6.084;2022-10-16T15:43:10;18.92;69.04
66144;SHT31;52947;50.842;6.084;2022-10-16T15:45:38;18.95;68.97
66144;SHT31;52947;50.842;6.084;2022-10-16T15:48:10;18.82;69.32
66144;SHT31;52947;50.842;6.084;2022-10-16T15:50:39;18.78;69.50
66144;SHT31;52947;50.842;6.084;2022-10-16T15:53:07;18.75;69.68
66144;SHT31;52947;50.842;6.084;2022-10-16T15:55:35;18.75;69.49
66144;SHT31;52947;50.842;6.084;2022-10-16T15:58:04;18.65;69.82
66144;SHT31;52947;50.842;6.084;2022-10-16T16:00:32;18.60;69.75